Time;durP1;ratioP1;P1;durP2;ratioP2;P2;SDS_P1;SDS_P2;PMS_P1;PMS_P2;Temp;Humidity;BMP_temperature;BMP_pressure;BME280_temperature;BME280_humidity;BME280_pressure;Samples;Min_cycle;Max_cycle;Signal;HPM_P1;HPM_P2
2023/11/18 00:00:59;0.00;0.00;0.62;0.00;0.00;0.62;4.37;3.97;;;21.50;27.70;;;;;;2258554;61;20385;-55
2023/11/18 00:03:43;0.00;0.00;0.62;0.00;0.00;0.62;4.67;3.63;;;21.50;27.70;;;;;;2258513;61;20910;-60
2023/11/18 00:06:28;0.00;0.00;0.62;0.00;0.00;0.62;3.83;3.30;;;21.50;27.70;;;;;;2258964;61;20458;-62
2023/11/18 00:09:14;0.00;0.00;0.62;0.00;0.00;0.62;4.13;3.70;;;21.50;27.70;;;;;;2258579;61;20365;-58
2023/11/18 00:11:59;0.00;0.00;0.62;0.00;0.00;0.62;5.37;4.23;;;21.50;27.70;;;;;;2258536;61;20389;-60
2023/11/18 00:14:45;0.00;0.00;0.62;0.00;0.00;0.62;4.53;3.80;;;21.50;27.70;;;;;;2255671;61;20774;-57
2023/11/18 00:17:30;0.00;0.00;0.62;0.00;0.00;0.62;4.83;4.00;;;21.50;27.70;;;;;;2255530;61;20433;-60
2023/11/18 00:20:16;0.00;0.00;0.62;0.00;0.00;0.62;5.40;4.23;;;21.50;27.70;;;;;;2258755;61;20432;-62
2023/11/18 00:23:04;0.00;0.00;0.62;0.00;0.00;0.62;4.33;3.90;;;21.50;27.70;;;;;;2258249;61;20373;-62
2023/11/18 00:25:52;0.00;0.00;0.62;0.00;0.00;0.62;4.40;4.00;;;21.50;27.70;;;;;;2255321;61;20365;-62
2023/11/18 00:28:37;0.00;0.00;0.62;0.00;0.00;0.62;4.50;3.67;;;21.50;27.70;;;;;;2255624;61;20819;-60
2023/11/18 00:31:21;0.00;0.00;0.62;0.00;0.00;0.62;4.40;3.43;;;21.50;27.70;;;;;;2258517;61;20386;-62
2023/11/18 00:34:06;0.00;0.00;0.62;0.00;0.00;0.62;3.83;3.37;;;21.50;27.70;;;;;;2255478;61;20413;-59
2023/11/18 00:36:52;0.00;0.00;0.62;0.00;0.00;0.62;4.17;3.53;;;21.50;27.70;;;;;;2259042;61;20361;-60
2023/11/18 00:39:39;0.00;0.00;0.62;0.00;0.00;0.62;6.30;4.40;;;21.50;27.70;;;;;;2296877;56;20385;31
2023/11/18 00:42:26;0.00;0.00;0.62;0.00;0.00;0.62;5.30;3.50;;;21.50;27.70;;;;;;2256283;61;20413;-61
2023/11/18 00:45:12;0.00;0.00;0.62;0.00;0.00;0.62;4.07;3.60;;;21.50;27.70;;;;;;2255059;61;20370;-59
2023/11/18 00:47:57;0.00;0.00;0.62;0.00;0.00;0.62;3.90;3.30;;;21.50;27.70;;;;;;2258893;61;20369;-63
2023/11/18 00:50:41;0.00;0.00;0.62;0.00;0.00;0.62;6.40;3.60;;;21.50;27.70;;;;;;2255028;61;20421;-60
2023/11/18 00:53:26;0.00;0.00;0.62;0.00;0.00;0.62;3.87;3.30;;;21.50;27.70;;;;;;2258330;61;20817;-57
2023/11/18 00:56:17;0.00;0.00;0.62;0.00;0.00;0.62;3.67;2.90;;;21.40;27.60;;;;;;2255158;61;20366;-59
2023/11/18 00:59:03;0.00;0.00;0.62;0.00;0.00;0.62;4.10;3.70;;;21.40;27.60;;;;;;2255359;61;20358;-61
2023/11/18 01:01:49;0.00;0.00;0.62;0.00;0.00;0.62;4.20;3.50;;;21.50;27.70;;;;;;2258205;61;20370;-60
2023/11/18 01:04:34;0.00;0.00;0.62;0.00;0.00;0.62;3.90;3.10;;;21.40;27.60;;;;;;2255528;61;20903;-60
2023/11/18 01:07:18;0.00;0.00;0.62;0.00;0.00;0.62;3.63;3.17;;;21.40;27.60;;;;;;2258276;61;20424;-62
2023/11/18 01:10:04;0.00;0.00;0.62;0.00;0.00;0.62;4.20;2.97;;;21.40;27.60;;;;;;2258772;61;20390;-62
2023/11/18 01:12:48;0.00;0.00;0.62;0.00;0.00;0.62;3.00;2.63;;;21.40;27.60;;;;;;2257980;61;20448;-62
2023/11/18 01:15:35;0.00;0.00;0.62;0.00;0.00;0.62;3.90;3.10;;;21.40;27.60;;;;;;2258237;61;20409;-62
2023/11/18 01:18:19;0.00;0.00;0.62;0.00;0.00;0.62;3.70;2.90;;;21.40;27.60;;;;;;2258627;61;20369;-62
2023/11/18 01:21:05;0.00;0.00;0.62;0.00;0.00;0.62;3.47;3.03;;;21.40;27.60;;;;;;2258407;61;20385;-60
2023/11/18 01:23:51;0.00;0.00;0.62;0.00;0.00;0.62;4.10;3.23;;;21.40;27.60;;;;;;2255081;61;20366;-61
2023/11/18 01:26:36;0.00;0.00;0.62;0.00;0.00;0.62;4.10;3.20;;;21.40;28.10;;;;;;2258493;61;20800;-63
2023/11/18 01:29:22;0.00;0.00;0.62;0.00;0.00;0.62;4.00;2.90;;;21.40;27.60;;;;;;2257913;61;20789;-63
2023/11/18 01:32:11;0.00;0.00;0.62;0.00;0.00;0.62;3.30;2.70;;;21.40;27.60;;;;;;2254633;61;20397;-63
2023/11/18 01:34:56;0.00;0.00;0.62;0.00;0.00;0.62;3.40;2.90;;;21.40;27.60;;;;;;2255000;61;20421;-59
2023/11/18 01:37:40;0.00;0.00;0.62;0.00;0.00;0.62;3.17;2.73;;;21.40;27.60;;;;;;2257999;61;20443;-60
2023/11/18 01:40:25;0.00;0.00;0.62;0.00;0.00;0.62;3.27;2.80;;;21.40;27.60;;;;;;2258794;61;21001;-62
2023/11/18 01:43:12;0.00;0.00;0.62;0.00;0.00;0.62;3.70;2.80;;;21.40;27.60;;;;;;2258161;61;20911;-62
2023/11/18 01:45:58;0.00;0.00;0.62;0.00;0.00;0.62;4.10;3.30;;;21.40;27.60;;;;;;2258419;61;20374;-62
2023/11/18 01:48:44;0.00;0.00;0.62;0.00;0.00;0.62;3.53;3.03;;;21.40;27.60;;;;;;2254730;61;20373;-59
2023/11/18 01:51:30;0.00;0.00;0.62;0.00;0.00;0.62;3.20;2.53;;;21.40;27.60;;;;;;2345396;56;20925;-63
2023/11/18 01:54:18;0.00;0.00;0.62;0.00;0.00;0.62;3.73;3.27;;;21.40;27.60;;;;;;2262424;61;20372;-62
2023/11/18 01:57:05;0.00;0.00;0.62;0.00;0.00;0.62;3.57;3.07;;;21.40;27.60;;;;;;2259140;61;20435;-61
2023/11/18 01:59:50;0.00;0.00;0.62;0.00;0.00;0.62;3.23;2.67;;;21.40;27.60;;;;;;2258939;61;20381;-63
2023/11/18 02:02:37;0.00;0.00;0.62;0.00;0.00;0.62;3.40;2.50;;;21.40;27.60;;;;;;2259063;61;20393;-60
2023/11/18 02:05:23;0.00;0.00;0.62;0.00;0.00;0.62;3.67;2.70;;;21.40;27.60;;;;;;2259394;61;20427;-62
2023/11/18 02:08:08;0.00;0.00;0.62;0.00;0.00;0.62;3.80;2.80;;;21.40;27.60;;;;;;2259044;61;20927;-59
2023/11/18 02:11:01;0.00;0.00;0.62;0.00;0.00;0.62;3.43;2.57;;;21.40;27.60;;;;;;2262527;61;20455;-60
2023/11/18 02:13:50;0.00;0.00;0.62;0.00;0.00;0.62;2.63;2.43;;;21.40;27.60;;;;;;2261549;61;20408;-60
2023/11/18 02:16:35;0.00;0.00;0.62;0.00;0.00;0.62;3.90;3.40;;;21.40;27.60;;;;;;2262434;61;20408;-60
2023/11/18 02:19:24;0.00;0.00;0.62;0.00;0.00;0.62;3.57;2.67;;;21.40;27.60;;;;;;2259036;61;20376;-62
2023/11/18 02:22:11;0.00;0.00;0.62;0.00;0.00;0.62;2.90;2.40;;;21.40;27.60;;;;;;2255012;61;20775;-61
2023/11/18 02:24:56;0.00;0.00;0.62;0.00;0.00;0.62;3.47;2.80;;;21.40;27.60;;;;;;2275084;61;21017;-63
2023/11/18 02:27:42;0.00;0.00;0.62;0.00;0.00;0.62;3.70;2.70;;;21.40;27.60;;;;;;2262688;61;20893;-64
2023/11/18 02:30:30;0.00;0.00;0.62;0.00;0.00;0.62;4.00;3.07;;;21.40;27.60;;;;;;2259017;61;20801;-63
2023/11/18 02:33:21;0.00;0.00;0.62;0.00;0.00;0.62;3.13;2.73;;;21.40;27.60;;;;;;2262267;61;20361;-63
2023/11/18 02:36:14;0.00;0.00;0.62;0.00;0.00;0.62;3.17;2.60;;;21.30;27.50;;;;;;2262196;61;20365;-62
2023/11/18 02:39:01;0.00;0.00;0.62;0.00;0.00;0.62;2.90;2.60;;;21.30;27.50;;;;;;2259532;61;20388;-63
2023/11/18 02:41:51;0.00;0.00;0.62;0.00;0.00;0.62;3.50;2.90;;;21.40;27.60;;;;;;2258879;61;20356;-63
2023/11/18 02:44:38;0.00;0.00;0.62;0.00;0.00;0.62;3.70;3.07;;;21.30;27.50;;;;;;2262148;61;20377;-63
2023/11/18 02:47:22;0.00;0.00;0.62;0.00;0.00;0.62;3.60;2.70;;;21.30;27.50;;;;;;2262571;61;20369;-64
2023/11/18 02:50:10;0.00;0.00;0.62;0.00;0.00;0.62;3.43;2.20;;;21.30;27.50;;;;;;2262755;61;20400;-63
2023/11/18 02:52:55;0.00;0.00;0.62;0.00;0.00;0.62;4.00;2.53;;;21.30;27.50;;;;;;2258400;61;20484;-64
2023/11/18 02:55:40;0.00;0.00;0.62;0.00;0.00;0.62;3.37;2.70;;;21.30;27.50;;;;;;2259006;61;20369;-63
2023/11/18 02:58:25;0.00;0.00;0.62;0.00;0.00;0.62;3.80;2.63;;;21.30;27.50;;;;;;2261976;61;20411;-63
2023/11/18 03:01:11;0.00;0.00;0.62;0.00;0.00;0.62;3.10;2.80;;;21.30;27.50;;;;;;2262567;61;20431;-62
2023/11/18 03:03:56;0.00;0.00;0.62;0.00;0.00;0.62;2.40;2.20;;;21.30;28.10;;;;;;2262345;61;20369;-64
2023/11/18 03:06:42;0.00;0.00;0.62;0.00;0.00;0.62;2.77;2.20;;;21.30;27.50;;;;;;2258945;61;20384;-63
2023/11/18 03:09:27;0.00;0.00;0.62;0.00;0.00;0.62;3.10;2.60;;;21.30;27.50;;;;;;2262812;61;20393;-62
2023/11/18 03:12:12;0.00;0.00;0.62;0.00;0.00;0.62;4.23;2.43;;;21.30;27.50;;;;;;2262073;61;20477;-64
2023/11/18 03:14:57;0.00;0.00;0.62;0.00;0.00;0.62;2.53;2.10;;;21.30;27.50;;;;;;2262032;61;20361;-63
2023/11/18 03:17:44;0.00;0.00;0.62;0.00;0.00;0.62;3.83;2.87;;;21.30;27.50;;;;;;2262545;61;20365;-63
2023/11/18 03:20:29;0.00;0.00;0.62;0.00;0.00;0.62;3.20;2.60;;;21.30;27.50;;;;;;2261869;61;20792;-62
2023/11/18 03:23:14;0.00;0.00;0.62;0.00;0.00;0.62;3.00;2.50;;;21.30;27.50;;;;;;2261831;61;20400;-63
2023/11/18 03:25:58;0.00;0.00;0.62;0.00;0.00;0.62;3.30;2.43;;;21.30;27.50;;;;;;2258778;61;20376;-63
2023/11/18 03:28:43;0.00;0.00;0.62;0.00;0.00;0.62;2.83;2.53;;;21.30;27.50;;;;;;2258884;61;20426;-63
2023/11/18 03:31:28;0.00;0.00;0.62;0.00;0.00;0.62;3.87;2.83;;;21.30;27.50;;;;;;2256429;61;20408;-63
2023/11/18 03:34:14;0.00;0.00;0.62;0.00;0.00;0.62;2.97;2.50;;;21.30;27.50;;;;;;2262599;61;20365;-63
2023/11/18 03:36:59;0.00;0.00;0.62;0.00;0.00;0.62;3.13;2.73;;;21.30;27.50;;;;;;2258820;61;20365;-63
2023/11/18 03:39:45;0.00;0.00;0.62;0.00;0.00;0.62;2.70;2.10;;;21.30;27.50;;;;;;2262502;61;20388;-64
2023/11/18 03:42:30;0.00;0.00;0.62;0.00;0.00;0.62;3.20;2.57;;;21.30;27.50;;;;;;2258128;61;20399;-63
2023/11/18 03:45:15;0.00;0.00;0.62;0.00;0.00;0.62;2.90;2.60;;;21.30;27.50;;;;;;2258905;61;20443;-63
2023/11/18 03:48:00;0.00;0.00;0.62;0.00;0.00;0.62;3.70;2.30;;;21.30;27.50;;;;;;2259160;61;20404;-63
2023/11/18 03:50:46;0.00;0.00;0.62;0.00;0.00;0.62;2.93;2.30;;;21.30;27.50;;;;;;2262232;61;20459;-64
2023/11/18 03:53:33;0.00;0.00;0.62;0.00;0.00;0.62;2.90;2.50;;;21.20;27.40;;;;;;2262048;61;20365;-63
2023/11/18 03:56:18;0.00;0.00;0.62;0.00;0.00;0.62;2.83;2.37;;;21.30;27.50;;;;;;2262263;61;20934;-63
2023/11/18 03:59:04;0.00;0.00;0.62;0.00;0.00;0.62;3.23;2.27;;;21.20;27.40;;;;;;2261930;61;20357;-64
2023/11/18 04:01:50;0.00;0.00;0.62;0.00;0.00;0.62;2.80;2.40;;;21.20;27.50;;;;;;2261578;61;20449;-63
2023/11/18 04:04:35;0.00;0.00;0.62;0.00;0.00;0.62;3.70;3.00;;;21.20;27.50;;;;;;2258539;61;20447;-63
2023/11/18 04:07:21;0.00;0.00;0.62;0.00;0.00;0.62;3.33;2.70;;;21.20;27.40;;;;;;2262289;61;20429;-63
2023/11/18 04:10:09;0.00;0.00;0.62;0.00;0.00;0.62;2.40;1.90;;;21.20;27.40;;;;;;2262170;61;20396;-63
2023/11/18 04:12:54;0.00;0.00;0.62;0.00;0.00;0.62;3.73;2.67;;;21.20;27.40;;;;;;2261153;61;20439;-63
2023/11/18 04:15:38;0.00;0.00;0.62;0.00;0.00;0.62;2.90;2.60;;;21.20;27.40;;;;;;2258732;61;20364;-64
2023/11/18 04:18:23;0.00;0.00;0.62;0.00;0.00;0.62;2.87;2.47;;;21.20;27.40;;;;;;2259276;61;20468;-64
2023/11/18 04:21:09;0.00;0.00;0.62;0.00;0.00;0.62;3.40;2.50;;;21.20;27.40;;;;;;2261450;61;20947;-64
2023/11/18 04:23:55;0.00;0.00;0.62;0.00;0.00;0.62;4.27;3.17;;;21.20;27.40;;;;;;2261021;61;20377;-62
2023/11/18 04:26:39;0.00;0.00;0.62;0.00;0.00;0.62;3.23;2.40;;;21.20;27.40;;;;;;2261884;61;20369;-64
2023/11/18 04:29:24;0.00;0.00;0.62;0.00;0.00;0.62;3.40;2.97;;;21.20;27.50;;;;;;2258944;61;20373;-62
2023/11/18 04:32:09;0.00;0.00;0.62;0.00;0.00;0.62;2.80;2.27;;;21.20;27.50;;;;;;2258448;61;21026;-63
2023/11/18 04:34:53;0.00;0.00;0.62;0.00;0.00;0.62;3.80;2.80;;;21.20;27.40;;;;;;2258752;61;20430;-64
2023/11/18 04:37:42;0.00;0.00;0.62;0.00;0.00;0.62;2.70;2.43;;;21.20;27.40;;;;;;2259302;61;20365;-65
2023/11/18 04:40:28;0.00;0.00;0.62;0.00;0.00;0.62;4.37;2.57;;;21.20;27.40;;;;;;2262227;61;20485;-63
2023/11/18 04:43:13;0.00;0.00;0.62;0.00;0.00;0.62;2.77;2.40;;;21.20;27.40;;;;;;2262331;61;20364;-63
2023/11/18 04:45:58;0.00;0.00;0.62;0.00;0.00;0.62;3.23;2.67;;;21.20;27.40;;;;;;2262908;61;20372;-63
2023/11/18 04:48:43;0.00;0.00;0.62;0.00;0.00;0.62;2.90;2.40;;;21.20;28.00;;;;;;2259378;61;20361;-63
2023/11/18 04:51:27;0.00;0.00;0.62;0.00;0.00;0.62;3.00;2.70;;;21.20;27.40;;;;;;2262795;61;20492;-63
2023/11/18 04:54:13;0.00;0.00;0.62;0.00;0.00;0.62;2.90;2.43;;;21.20;27.60;;;;;;2262683;61;20776;-63
2023/11/18 04:56:59;0.00;0.00;0.62;0.00;0.00;0.62;3.50;2.60;;;21.20;27.40;;;;;;2262671;61;20364;-63
2023/11/18 04:59:43;0.00;0.00;0.62;0.00;0.00;0.62;3.80;2.60;;;21.20;27.40;;;;;;2262803;61;20388;-63
2023/11/18 05:02:28;0.00;0.00;0.62;0.00;0.00;0.62;3.03;2.70;;;21.20;27.40;;;;;;2262378;61;20393;-63
2023/11/18 05:05:14;0.00;0.00;0.62;0.00;0.00;0.62;3.80;2.80;;;21.20;27.40;;;;;;2262404;61;20372;-62
2023/11/18 05:07:59;0.00;0.00;0.62;0.00;0.00;0.62;2.90;2.60;;;21.20;27.40;;;;;;2262459;61;20845;-63
2023/11/18 05:10:47;0.00;0.00;0.62;0.00;0.00;0.62;3.10;2.50;;;21.20;27.40;;;;;;2259257;61;20526;-62
2023/11/18 05:13:33;0.00;0.00;0.62;0.00;0.00;0.62;2.90;2.60;;;21.20;27.40;;;;;;2262896;61;20499;-66
2023/11/18 05:16:18;0.00;0.00;0.62;0.00;0.00;0.62;4.00;2.63;;;21.20;27.50;;;;;;2262332;61;20401;-62
2023/11/18 05:19:03;0.00;0.00;0.62;0.00;0.00;0.62;3.77;3.13;;;21.20;27.40;;;;;;2262494;61;20396;-61
2023/11/18 05:21:49;0.00;0.00;0.62;0.00;0.00;0.62;3.93;3.13;;;21.20;27.40;;;;;;2262158;61;20451;-68
2023/11/18 05:24:33;0.00;0.00;0.62;0.00;0.00;0.62;3.50;2.57;;;21.20;27.40;;;;;;2259632;61;20393;-64
2023/11/18 05:27:18;0.00;0.00;0.62;0.00;0.00;0.62;4.13;3.20;;;21.20;27.40;;;;;;2262488;61;20388;-68
2023/11/18 05:30:06;0.00;0.00;0.62;0.00;0.00;0.62;3.00;2.70;;;21.20;27.40;;;;;;2262803;61;20412;-62
2023/11/18 05:32:50;0.00;0.00;0.62;0.00;0.00;0.62;2.67;2.27;;;21.20;27.40;;;;;;2262500;61;20435;-62
2023/11/18 05:35:35;0.00;0.00;0.62;0.00;0.00;0.62;3.57;2.87;;;21.20;27.40;;;;;;2262944;61;20364;-63
2023/11/18 05:38:26;0.00;0.00;0.62;0.00;0.00;0.62;3.70;2.57;;;21.20;27.40;;;;;;2262807;61;20388;-62
2023/11/18 05:41:16;0.00;0.00;0.62;0.00;0.00;0.62;2.80;2.40;;;21.20;27.40;;;;;;2262293;61;20919;-62
2023/11/18 05:44:01;0.00;0.00;0.62;0.00;0.00;0.62;2.90;2.60;;;21.10;27.40;;;;;;2262761;61;20360;-63
2023/11/18 05:46:47;0.00;0.00;0.62;0.00;0.00;0.62;2.70;2.40;;;21.20;27.40;;;;;;2262845;61;20438;-61
2023/11/18 05:49:32;0.00;0.00;0.62;0.00;0.00;0.62;3.50;2.83;;;21.20;27.40;;;;;;2262114;61;20385;-61
2023/11/18 05:52:17;0.00;0.00;0.62;0.00;0.00;0.62;3.30;2.90;;;21.20;27.40;;;;;;2262393;61;20396;-62
2023/11/18 05:55:02;0.00;0.00;0.62;0.00;0.00;0.62;3.20;2.60;;;21.20;27.40;;;;;;2259331;61;20480;-65
2023/11/18 05:57:47;0.00;0.00;0.62;0.00;0.00;0.62;3.10;2.80;;;21.20;27.50;;;;;;2262715;61;20416;-63
2023/11/18 06:00:31;0.00;0.00;0.62;0.00;0.00;0.62;3.80;2.63;;;21.10;27.40;;;;;;2262381;61;20377;-63
2023/11/18 06:03:18;0.00;0.00;0.62;0.00;0.00;0.62;3.97;2.80;;;21.10;27.40;;;;;;2262314;61;20911;-63
2023/11/18 06:06:06;0.00;0.00;0.62;0.00;0.00;0.62;3.37;2.53;;;21.10;27.90;;;;;;2262409;61;20365;-64
2023/11/18 06:08:51;0.00;0.00;0.62;0.00;0.00;0.62;4.00;3.33;;;21.10;27.40;;;;;;2262640;61;20407;-63
2023/11/18 06:11:41;0.00;0.00;0.62;0.00;0.00;0.62;3.80;2.90;;;21.10;27.40;;;;;;2255982;61;20427;-63
2023/11/18 06:14:26;0.00;0.00;0.62;0.00;0.00;0.62;5.60;3.37;;;21.10;27.40;;;;;;2262777;61;20414;-64
2023/11/18 06:17:13;0.00;0.00;0.62;0.00;0.00;0.62;3.60;2.90;;;21.10;27.40;;;;;;2262637;61;20385;-63
2023/11/18 06:19:59;0.00;0.00;0.62;0.00;0.00;0.62;3.27;2.97;;;21.20;27.50;;;;;;2262351;61;20404;-63
2023/11/18 06:22:43;0.00;0.00;0.62;0.00;0.00;0.62;4.90;2.60;;;21.10;27.40;;;;;;2259182;61;20380;-63
2023/11/18 06:25:29;0.00;0.00;0.62;0.00;0.00;0.62;3.40;2.77;;;21.10;27.40;;;;;;2262158;61;20408;-63
2023/11/18 06:28:15;0.00;0.00;0.62;0.00;0.00;0.62;3.40;2.80;;;21.10;27.40;;;;;;2259230;61;20455;-63
2023/11/18 06:31:00;0.00;0.00;0.62;0.00;0.00;0.62;3.80;3.40;;;21.10;27.40;;;;;;2262588;61;20392;-65
2023/11/18 06:33:46;0.00;0.00;0.62;0.00;0.00;0.62;3.93;2.93;;;21.10;27.40;;;;;;2261863;61;20404;-63
2023/11/18 06:36:32;0.00;0.00;0.62;0.00;0.00;0.62;3.93;2.90;;;21.10;27.40;;;;;;2262342;61;20368;-63
2023/11/18 06:39:19;0.00;0.00;0.62;0.00;0.00;0.62;3.53;2.73;;;21.10;27.40;;;;;;2256307;61;20396;-63
2023/11/18 06:42:11;0.00;0.00;0.62;0.00;0.00;0.62;4.70;3.33;;;21.10;27.40;;;;;;2258479;61;20758;-62
2023/11/18 06:44:55;0.00;0.00;0.62;0.00;0.00;0.62;3.20;2.80;;;21.10;27.40;;;;;;2262302;61;20365;-63
2023/11/18 06:47:43;0.00;0.00;0.62;0.00;0.00;0.62;4.17;3.53;;;21.10;27.40;;;;;;2258839;61;20412;-62
2023/11/18 06:50:27;0.00;0.00;0.62;0.00;0.00;0.62;4.10;3.17;;;21.10;27.40;;;;;;2262314;61;20803;-62
2023/11/18 06:53:15;0.00;0.00;0.62;0.00;0.00;0.62;3.80;3.40;;;21.10;27.40;;;;;;2261887;61;20397;-66
2023/11/18 06:55:59;0.00;0.00;0.62;0.00;0.00;0.62;4.03;3.20;;;21.10;27.40;;;;;;2258825;61;20392;-64
2023/11/18 06:58:44;0.00;0.00;0.62;0.00;0.00;0.62;3.70;2.80;;;21.10;27.40;;;;;;2262596;61;20878;-63
2023/11/18 07:01:30;0.00;0.00;0.62;0.00;0.00;0.62;3.67;2.80;;;21.10;27.40;;;;;;2259055;61;20379;-64
2023/11/18 07:04:15;0.00;0.00;0.62;0.00;0.00;0.62;4.30;3.10;;;21.10;27.40;;;;;;2262451;61;20396;-65
2023/11/18 07:07:00;0.00;0.00;0.62;0.00;0.00;0.62;3.90;2.97;;;21.10;27.40;;;;;;2262593;61;20412;-63
2023/11/18 07:09:49;0.00;0.00;0.62;0.00;0.00;0.62;5.13;3.40;;;21.10;27.40;;;;;;2311312;55;20399;31
2023/11/18 07:12:36;0.00;0.00;0.62;0.00;0.00;0.62;3.23;2.53;;;21.10;27.40;;;;;;2247389;61;20428;-64
2023/11/18 07:15:21;0.00;0.00;0.62;0.00;0.00;0.62;3.60;3.00;;;21.10;27.40;;;;;;2246480;61;20392;-64
2023/11/18 07:18:06;0.00;0.00;0.62;0.00;0.00;0.62;4.20;3.07;;;21.10;27.40;;;;;;2246006;61;20368;-64
2023/11/18 07:20:54;0.00;0.00;0.62;0.00;0.00;0.62;4.00;3.33;;;21.10;27.40;;;;;;2249772;61;20395;-63
2023/11/18 07:23:38;0.00;0.00;0.62;0.00;0.00;0.62;4.53;3.27;;;21.10;27.40;;;;;;2250274;61;20355;-62
2023/11/18 07:26:24;0.00;0.00;0.62;0.00;0.00;0.62;4.03;3.07;;;21.10;27.40;;;;;;2250413;61;20364;-63
2023/11/18 07:29:09;0.00;0.00;0.62;0.00;0.00;0.62;5.50;3.40;;;21.10;27.40;;;;;;2250279;61;20411;-63
2023/11/18 07:31:56;0.00;0.00;0.62;0.00;0.00;0.62;4.87;3.60;;;21.10;27.40;;;;;;2249582;61;20438;-62
2023/11/18 07:34:41;0.00;0.00;0.62;0.00;0.00;0.62;4.20;3.57;;;21.00;27.30;;;;;;2247531;61;20395;-60
2023/11/18 07:37:26;0.00;0.00;0.62;0.00;0.00;0.62;4.70;3.13;;;21.10;27.40;;;;;;2250524;61;20387;-61
2023/11/18 07:40:12;0.00;0.00;0.62;0.00;0.00;0.62;4.30;3.07;;;21.10;27.40;;;;;;2247239;61;20411;-61
2023/11/18 07:43:01;0.00;0.00;0.62;0.00;0.00;0.62;4.37;3.40;;;21.00;27.30;;;;;;2247408;61;20359;-62
2023/11/18 07:45:49;0.00;0.00;0.62;0.00;0.00;0.62;7.00;3.20;;;21.00;27.30;;;;;;2250536;61;20419;-64
2023/11/18 07:48:35;0.00;0.00;0.62;0.00;0.00;0.62;3.77;3.00;;;21.00;27.30;;;;;;2249608;61;20368;-63
2023/11/18 07:51:23;0.00;0.00;0.62;0.00;0.00;0.62;3.90;3.23;;;21.10;27.40;;;;;;2250547;61;20385;-61
2023/11/18 07:54:09;0.00;0.00;0.62;0.00;0.00;0.62;4.40;3.53;;;21.10;27.90;;;;;;2247227;61;20448;-63
2023/11/18 07:56:54;0.00;0.00;0.62;0.00;0.00;0.62;6.23;3.80;;;21.00;27.30;;;;;;2250457;61;20945;-63
2023/11/18 07:59:40;0.00;0.00;0.62;0.00;0.00;0.62;5.30;3.93;;;21.00;27.30;;;;;;2250594;61;20466;-63
2023/11/18 08:02:24;0.00;0.00;0.62;0.00;0.00;0.62;8.20;3.87;;;21.00;27.30;;;;;;2249820;61;20367;-63
2023/11/18 08:05:13;0.00;0.00;0.62;0.00;0.00;0.62;7.13;4.30;;;21.00;27.30;;;;;;2247270;61;20437;-62
2023/11/18 08:07:59;0.00;0.00;0.62;0.00;0.00;0.62;5.00;3.90;;;21.00;27.30;;;;;;2247411;61;20448;-63
2023/11/18 08:10:44;0.00;0.00;0.62;0.00;0.00;0.62;6.50;3.90;;;21.00;27.30;;;;;;2250217;61;20484;-64
2023/11/18 08:13:29;0.00;0.00;0.62;0.00;0.00;0.62;5.30;4.10;;;21.00;27.30;;;;;;2247539;61;20487;-63
2023/11/18 08:16:15;0.00;0.00;0.62;0.00;0.00;0.62;7.37;4.77;;;21.00;27.30;;;;;;2250550;61;20439;-63
2023/11/18 08:19:02;0.00;0.00;0.62;0.00;0.00;0.62;5.57;4.47;;;21.00;27.30;;;;;;2250476;61;20406;-63
2023/11/18 08:21:47;0.00;0.00;0.62;0.00;0.00;0.62;6.13;4.60;;;21.00;27.30;;;;;;2250534;61;20402;-63
2023/11/18 08:24:33;0.00;0.00;0.62;0.00;0.00;0.62;7.30;4.13;;;21.00;27.30;;;;;;2247358;61;20359;-63
2023/11/18 08:27:18;0.00;0.00;0.62;0.00;0.00;0.62;8.77;5.07;;;21.00;27.30;;;;;;2250724;61;20363;-69
2023/11/18 08:30:10;0.00;0.00;0.62;0.00;0.00;0.62;5.50;4.27;;;21.00;27.30;;;;;;2251089;61;20399;-64
2023/11/18 08:32:58;0.00;0.00;0.62;0.00;0.00;0.62;6.80;4.37;;;21.00;27.30;;;;;;2250419;61;20383;-65
2023/11/18 08:35:42;0.00;0.00;0.62;0.00;0.00;0.62;6.33;4.80;;;21.00;27.30;;;;;;2251303;61;20410;-64
2023/11/18 08:38:28;0.00;0.00;0.62;0.00;0.00;0.62;7.77;5.20;;;21.00;27.30;;;;;;2251084;61;20444;-63
2023/11/18 08:41:12;0.00;0.00;0.62;0.00;0.00;0.62;6.50;4.77;;;21.00;27.30;;;;;;2251201;61;20383;-64
2023/11/18 08:43:57;0.00;0.00;0.62;0.00;0.00;0.62;6.20;4.60;;;21.00;27.30;;;;;;2251294;61;20387;-64
2023/11/18 08:46:42;0.00;0.00;0.62;0.00;0.00;0.62;5.77;4.83;;;21.00;27.30;;;;;;2250842;61;20772;-62
2023/11/18 08:49:33;0.00;0.00;0.62;0.00;0.00;0.62;8.13;5.10;;;21.00;27.30;;;;;;2251239;61;20367;-63
2023/11/18 08:52:18;0.00;0.00;0.62;0.00;0.00;0.62;8.40;5.60;;;21.00;27.30;;;;;;2247639;61;20395;-63
2023/11/18 08:55:13;0.00;0.00;0.62;0.00;0.00;0.62;7.00;4.37;;;21.00;27.30;;;;;;2248169;61;20444;-62
2023/11/18 08:57:58;0.00;0.00;0.62;0.00;0.00;0.62;7.10;5.27;;;21.00;27.30;;;;;;2251507;61;20363;-62
2023/11/18 09:03:42;0.00;0.00;0.62;0.00;0.00;0.62;8.73;5.20;;;21.00;27.30;;;;;;2247865;61;20356;-64
2023/11/18 09:06:29;0.00;0.00;0.62;0.00;0.00;0.62;7.97;5.37;;;21.00;27.30;;;;;;2248081;61;20395;-58
2023/11/18 09:09:15;0.00;0.00;0.62;0.00;0.00;0.62;6.13;4.70;;;21.00;27.30;;;;;;2250822;61;20886;-56
2023/11/18 09:12:02;0.00;0.00;0.62;0.00;0.00;0.62;7.10;5.43;;;21.00;27.30;;;;;;2250559;61;20392;-58
2023/11/18 09:14:49;0.00;0.00;0.62;0.00;0.00;0.62;5.90;4.60;;;21.00;27.30;;;;;;2250716;61;20448;-59
2023/11/18 09:17:34;0.00;0.00;0.62;0.00;0.00;0.62;7.50;5.50;;;21.00;27.30;;;;;;2250232;61;20372;-63
2023/11/18 09:20:22;0.00;0.00;0.62;0.00;0.00;0.62;8.23;5.17;;;21.00;27.30;;;;;;2250446;61;20404;-62
2023/11/18 09:23:09;0.00;0.00;0.62;0.00;0.00;0.62;6.67;4.90;;;21.00;27.30;;;;;;2249888;61;20379;-63
2023/11/18 09:25:54;0.00;0.00;0.62;0.00;0.00;0.62;7.47;5.63;;;21.00;27.30;;;;;;2250659;61;20523;-62
2023/11/18 09:28:38;0.00;0.00;0.62;0.00;0.00;0.62;8.00;5.47;;;21.00;27.30;;;;;;2250539;61;20411;-58
2023/11/18 09:31:23;0.00;0.00;0.62;0.00;0.00;0.62;7.83;5.63;;;21.00;27.30;;;;;;2250063;61;20918;-59
2023/11/18 09:34:09;0.00;0.00;0.62;0.00;0.00;0.62;5.80;5.00;;;21.00;27.30;;;;;;2250375;61;20379;-59
2023/11/18 09:36:58;0.00;0.00;0.62;0.00;0.00;0.62;6.73;5.07;;;21.00;27.30;;;;;;2247133;61;20362;-63
2023/11/18 09:39:45;0.00;0.00;0.62;0.00;0.00;0.62;6.60;4.40;;;21.00;27.30;;;;;;2250172;61;20383;-59
2023/11/18 09:42:30;0.00;0.00;0.62;0.00;0.00;0.62;7.47;5.10;;;21.00;27.30;;;;;;2250172;61;20376;-60
2023/11/18 09:45:19;0.00;0.00;0.62;0.00;0.00;0.62;7.30;5.10;;;21.00;27.30;;;;;;2250272;61;20492;-63
2023/11/18 09:48:07;0.00;0.00;0.62;0.00;0.00;0.62;6.30;4.20;;;21.00;27.30;;;;;;2250561;61;20905;-62
2023/11/18 09:50:53;0.00;0.00;0.62;0.00;0.00;0.62;7.63;5.50;;;21.00;27.30;;;;;;2250353;61;20786;-62
2023/11/18 09:53:40;0.00;0.00;0.62;0.00;0.00;0.62;7.07;5.13;;;21.00;27.30;;;;;;2249618;61;20857;-62
2023/11/18 09:56:43;0.00;0.00;0.62;0.00;0.00;0.62;5.60;4.40;;;21.10;27.40;;;;;;2250624;61;20371;-62
2023/11/18 09:59:35;0.00;0.00;0.62;0.00;0.00;0.62;7.00;4.83;;;21.00;27.30;;;;;;2250244;61;20363;-64
2023/11/18 10:02:23;0.00;0.00;0.62;0.00;0.00;0.62;7.90;5.23;;;21.00;27.30;;;;;;2250415;61;20387;-59
2023/11/18 10:05:12;0.00;0.00;0.62;0.00;0.00;0.62;7.90;4.93;;;21.10;27.40;;;;;;2247207;61;20368;-57
2023/11/18 10:08:01;0.00;0.00;0.62;0.00;0.00;0.62;6.67;5.40;;;21.00;27.30;;;;;;2246708;61;20364;-58
2023/11/18 10:10:46;0.00;0.00;0.62;0.00;0.00;0.62;6.80;5.13;;;21.10;27.40;;;;;;2250568;61;20813;-59
2023/11/18 10:13:34;0.00;0.00;0.62;0.00;0.00;0.62;6.43;4.93;;;21.10;27.40;;;;;;2246890;61;20931;-62
2023/11/18 10:16:18;0.00;0.00;0.62;0.00;0.00;0.62;6.47;4.83;;;21.00;27.30;;;;;;2249753;61;20395;-62
2023/11/18 10:19:08;0.00;0.00;0.62;0.00;0.00;0.62;6.73;5.50;;;21.10;27.40;;;;;;2250265;61;20375;-62
2023/11/18 10:21:56;0.00;0.00;0.62;0.00;0.00;0.62;5.10;4.57;;;21.10;27.40;;;;;;2249490;61;20456;-63
2023/11/18 10:24:44;0.00;0.00;0.62;0.00;0.00;0.62;6.93;4.83;;;21.10;27.40;;;;;;2250296;61;20414;-59
2023/11/18 10:27:31;0.00;0.00;0.62;0.00;0.00;0.62;6.40;5.30;;;21.10;27.40;;;;;;2250169;61;20343;-63
2023/11/18 10:30:21;0.00;0.00;0.62;0.00;0.00;0.62;6.00;4.20;;;21.10;27.40;;;;;;2249899;61;20392;-60
2023/11/18 10:33:08;0.00;0.00;0.62;0.00;0.00;0.62;6.93;4.63;;;21.10;27.40;;;;;;2249711;61;20442;-58
2023/11/18 10:35:55;0.00;0.00;0.62;0.00;0.00;0.62;5.10;4.57;;;21.10;27.40;;;;;;2250190;61;20371;-60
2023/11/18 10:38:49;0.00;0.00;0.62;0.00;0.00;0.62;5.67;4.63;;;21.10;27.40;;;;;;2250049;61;20822;-59
2023/11/18 10:41:42;0.00;0.00;0.62;0.00;0.00;0.62;5.60;4.17;;;21.10;27.40;;;;;;2250107;61;20471;-58
2023/11/18 10:44:29;0.00;0.00;0.62;0.00;0.00;0.62;5.90;4.43;;;21.10;27.40;;;;;;2249427;61;20928;-60
2023/11/18 10:47:17;0.00;0.00;0.62;0.00;0.00;0.62;5.67;4.90;;;21.20;27.40;;;;;;2250166;61;20375;-58
2023/11/18 10:50:01;0.00;0.00;0.62;0.00;0.00;0.62;5.10;4.20;;;21.20;27.40;;;;;;2250185;61;20926;-62
2023/11/18 10:52:46;0.00;0.00;0.62;0.00;0.00;0.62;5.60;4.80;;;21.20;27.40;;;;;;2249479;61;21001;-62
2023/11/18 10:55:36;0.00;0.00;0.62;0.00;0.00;0.62;8.47;4.63;;;21.20;28.00;;;;;;2250324;61;20411;-61
2023/11/18 10:58:21;0.00;0.00;0.62;0.00;0.00;0.62;6.10;4.90;;;21.20;27.40;;;;;;2250421;61;20419;-63